sensor_id;sensor_type;location;lat;lon;timestamp;pressure;altitude;pressure_sealevel;temperature;humidity
55656;BME280;41530;52.382;5.270;2024-01-06T00:01:14;100652.25;;;15.46;59.57
55656;BME280;41530;52.382;5.270;2024-01-06T00:03:41;100609.63;;;15.20;59.49
55656;BME280;41530;52.382;5.270;2024-01-06T00:06:11;100645.47;;;15.43;59.35
55656;BME280;41530;52.382;5.270;2024-01-06T00:08:39;100662.44;;;15.50;59.29
55656;BME280;41530;52.382;5.270;2024-01-06T00:11:05;100654.06;;;15.45;59.43
55656;BME280;41530;52.382;5.270;2024-01-06T00:13:32;100665.25;;;15.49;59.29
55656;BME280;41530;52.382;5.270;2024-01-06T00:16:00;100666.66;;;15.43;59.32
55656;BME280;41530;52.382;5.270;2024-01-06T00:18:27;100669.72;;;15.39;59.25
55656;BME280;41530;52.382;5.270;2024-01-06T00:20:54;100682.25;;;15.46;59.21
55656;BME280;41530;52.382;5.270;2024-01-06T00:23:21;100629.75;;;15.13;58.96
55656;BME280;41530;52.382;5.270;2024-01-06T00:25:47;100652.19;;;15.28;59.15
55656;BME280;41530;52.382;5.270;2024-01-06T00:28:14;100663.72;;;15.37;59.12
55656;BME280;41530;52.382;5.270;2024-01-06T00:30:40;100670.00;;;15.36;59.03
55656;BME280;41530;52.382;5.270;2024-01-06T00:33:07;100679.09;;;15.43;59.17
55656;BME280;41530;52.382;5.270;2024-01-06T00:35:34;100679.34;;;15.40;59.15
55656;BME280;41530;52.382;5.270;2024-01-06T00:38:01;100693.19;;;15.43;59.05
55656;BME280;41530;52.382;5.270;2024-01-06T00:40:28;100689.25;;;15.38;59.00
55656;BME280;41530;52.382;5.270;2024-01-06T00:42:55;100699.31;;;15.44;59.00
55656;BME280;41530;52.382;5.270;2024-01-06T00:45:22;100698.47;;;15.43;59.09
55656;BME280;41530;52.382;5.270;2024-01-06T00:47:49;100677.72;;;15.29;58.94
55656;BME280;41530;52.382;5.270;2024-01-06T00:50:17;100695.41;;;15.38;59.08
55656;BME280;41530;52.382;5.270;2024-01-06T00:52:46;100697.34;;;15.36;59.07
55656;BME280;41530;52.382;5.270;2024-01-06T00:55:13;100704.47;;;15.36;58.89
55656;BME280;41530;52.382;5.270;2024-01-06T00:57:40;100694.59;;;15.28;58.90
55656;BME280;41530;52.382;5.270;2024-01-06T01:00:07;100716.75;;;15.37;58.87
55656;BME280;41530;52.382;5.270;2024-01-06T01:02:33;100722.88;;;15.37;58.51
55656;BME280;41530;52.382;5.270;2024-01-06T01:05:02;100719.53;;;15.35;58.69
55656;BME280;41530;52.382;5.270;2024-01-06T01:07:29;100718.00;;;15.32;58.71
55656;BME280;41530;52.382;5.270;2024-01-06T01:09:57;100715.19;;;15.34;58.44
55656;BME280;41530;52.382;5.270;2024-01-06T01:12:24;100714.50;;;15.32;58.08
55656;BME280;41530;52.382;5.270;2024-01-06T01:14:51;100721.78;;;15.30;58.49
55656;BME280;41530;52.382;5.270;2024-01-06T01:17:19;100717.59;;;15.27;58.41
55656;BME280;41530;52.382;5.270;2024-01-06T01:19:45;100725.41;;;15.29;58.26
55656;BME280;41530;52.382;5.270;2024-01-06T01:22:13;100737.13;;;15.26;58.30
55656;BME280;41530;52.382;5.270;2024-01-06T01:24:40;100731.97;;;15.25;58.09
55656;BME280;41530;52.382;5.270;2024-01-06T01:27:07;100747.72;;;15.26;58.13
55656;BME280;41530;52.382;5.270;2024-01-06T01:29:34;100740.03;;;15.23;57.67
55656;BME280;41530;52.382;5.270;2024-01-06T01:32:01;100754.13;;;15.24;57.78
55656;BME280;41530;52.382;5.270;2024-01-06T01:34:28;100764.03;;;15.22;57.75
55656;BME280;41530;52.382;5.270;2024-01-06T01:36:55;100757.88;;;15.21;57.86
55656;BME280;41530;52.382;5.270;2024-01-06T01:39:21;100750.66;;;15.14;57.74
55656;BME280;41530;52.382;5.270;2024-01-06T01:41:48;100767.94;;;15.18;57.72
55656;BME280;41530;52.382;5.270;2024-01-06T01:44:15;100767.25;;;15.16;56.86
55656;BME280;41530;52.382;5.270;2024-01-06T01:46:42;100772.41;;;15.17;57.44
55656;BME280;41530;52.382;5.270;2024-01-06T01:49:09;100771.84;;;15.14;57.38
55656;BME280;41530;52.382;5.270;2024-01-06T01:51:36;100779.66;;;15.15;57.23
55656;BME280;41530;52.382;5.270;2024-01-06T01:54:05;100773.78;;;15.12;57.53
55656;BME280;41530;52.382;5.270;2024-01-06T01:56:32;100780.75;;;15.13;57.51
55656;BME280;41530;52.382;5.270;2024-01-06T01:59:06;100784.38;;;15.12;57.35
55656;BME280;41530;52.382;5.270;2024-01-06T02:01:34;100794.16;;;15.11;57.12
55656;BME280;41530;52.382;5.270;2024-01-06T02:04:00;100781.28;;;15.07;56.25
55656;BME280;41530;52.382;5.270;2024-01-06T02:06:27;100792.72;;;15.07;56.26
55656;BME280;41530;52.382;5.270;2024-01-06T02:08:54;100796.66;;;15.03;56.12
55656;BME280;41530;52.382;5.270;2024-01-06T02:11:21;100803.63;;;15.04;55.58
55656;BME280;41530;52.382;5.270;2024-01-06T02:13:48;100801.25;;;15.01;56.53
55656;BME280;41530;52.382;5.270;2024-01-06T02:16:14;100803.06;;;15.01;56.52
55656;BME280;41530;52.382;5.270;2024-01-06T02:18:41;100809.31;;;15.00;56.88
55656;BME280;41530;52.382;5.270;2024-01-06T02:21:11;100811.97;;;15.00;56.86
55656;BME280;41530;52.382;5.270;2024-01-06T02:23:37;100817.13;;;15.01;56.88
55656;BME280;41530;52.382;5.270;2024-01-06T02:26:04;100818.13;;;15.00;56.96
55656;BME280;41530;52.382;5.270;2024-01-06T02:28:31;100826.06;;;15.00;57.22
55656;BME280;41530;52.382;5.270;2024-01-06T02:30:57;100820.06;;;14.98;57.05
55656;BME280;41530;52.382;5.270;2024-01-06T02:33:24;100822.72;;;14.98;57.17
55656;BME280;41530;52.382;5.270;2024-01-06T02:35:51;100827.16;;;14.97;57.07
55656;BME280;41530;52.382;5.270;2024-01-06T02:38:21;100828.25;;;14.95;57.26
55656;BME280;41530;52.382;5.270;2024-01-06T02:40:47;100837.31;;;14.92;57.30
55656;BME280;41530;52.382;5.270;2024-01-06T02:43:14;100838.03;;;14.94;57.16
55656;BME280;41530;52.382;5.270;2024-01-06T02:45:41;100830.91;;;14.85;56.83
55656;BME280;41530;52.382;5.270;2024-01-06T02:48:07;100846.09;;;14.93;57.07
55656;BME280;41530;52.382;5.270;2024-01-06T02:50:34;100847.06;;;14.92;57.09
55656;BME280;41530;52.382;5.270;2024-01-06T02:53:01;100844.59;;;14.90;56.93
55656;BME280;41530;52.382;5.270;2024-01-06T02:55:27;100852.53;;;14.90;57.04
55656;BME280;41530;52.382;5.270;2024-01-06T02:57:54;100861.44;;;14.89;56.97
55656;BME280;41530;52.382;5.270;2024-01-06T03:00:21;100872.03;;;14.89;57.03
55656;BME280;41530;52.382;5.270;2024-01-06T03:02:48;100867.00;;;14.86;56.88
55656;BME280;41530;52.382;5.270;2024-01-06T03:05:14;100866.28;;;14.84;57.07
55656;BME280;41530;52.382;5.270;2024-01-06T03:07:41;100870.63;;;14.85;57.01
55656;BME280;41530;52.382;5.270;2024-01-06T03:10:08;100871.72;;;14.83;57.13
55656;BME280;41530;52.382;5.270;2024-01-06T03:12:35;100879.53;;;14.84;57.13
55656;BME280;41530;52.382;5.270;2024-01-06T03:15:01;100884.97;;;14.83;56.94
55656;BME280;41530;52.382;5.270;2024-01-06T03:17:28;100884.13;;;14.82;57.07
55656;BME280;41530;52.382;5.270;2024-01-06T03:19:56;100887.75;;;14.81;56.92
55656;BME280;41530;52.382;5.270;2024-01-06T03:22:22;100896.66;;;14.80;56.94
55656;BME280;41530;52.382;5.270;2024-01-06T03:24:49;100897.78;;;14.78;56.97
55656;BME280;41530;52.382;5.270;2024-01-06T03:27:16;100895.94;;;14.78;56.90
55656;BME280;41530;52.382;5.270;2024-01-06T03:29:42;100895.94;;;14.78;57.00
55656;BME280;41530;52.382;5.270;2024-01-06T03:32:09;100897.78;;;14.78;57.00
55656;BME280;41530;52.382;5.270;2024-01-06T03:34:36;100896.94;;;14.77;56.89
55656;BME280;41530;52.382;5.270;2024-01-06T03:37:02;100905.84;;;14.76;56.94
55656;BME280;41530;52.382;5.270;2024-01-06T03:39:29;100914.78;;;14.75;57.01
55656;BME280;41530;52.382;5.270;2024-01-06T03:41:56;100921.03;;;14.74;57.13
55656;BME280;41530;52.382;5.270;2024-01-06T03:44:23;100916.00;;;14.71;56.83
55656;BME280;41530;52.382;5.270;2024-01-06T03:46:49;100927.44;;;14.72;56.70
55656;BME280;41530;52.382;5.270;2024-01-06T03:49:16;100923.22;;;14.69;56.79
55656;BME280;41530;52.382;5.270;2024-01-06T03:51:45;100932.97;;;14.69;56.55
55656;BME280;41530;52.382;5.270;2024-01-06T03:54:11;100938.28;;;14.69;56.82
55656;BME280;41530;52.382;5.270;2024-01-06T03:56:38;100935.75;;;14.67;56.70
55656;BME280;41530;52.382;5.270;2024-01-06T03:59:05;100940.06;;;14.68;56.85
55656;BME280;41530;52.382;5.270;2024-01-06T04:01:31;100943.69;;;14.67;56.64
55656;BME280;41530;52.382;5.270;2024-01-06T04:04:04;100941.34;;;14.64;56.60
55656;BME280;41530;52.382;5.270;2024-01-06T04:06:31;100953.56;;;14.65;56.65
55656;BME280;41530;52.382;5.270;2024-01-06T04:08:58;100961.38;;;14.67;56.57
55656;BME280;41530;52.382;5.270;2024-01-06T04:11:25;100969.34;;;14.67;56.52
55656;BME280;41530;52.382;5.270;2024-01-06T04:13:51;100968.66;;;14.65;56.44
55656;BME280;41530;52.382;5.270;2024-01-06T04:16:21;100960.13;;;14.61;56.52
55656;BME280;41530;52.382;5.270;2024-01-06T04:18:48;100964.44;;;14.62;56.29
55656;BME280;41530;52.382;5.270;2024-01-06T04:21:15;100967.22;;;14.60;56.49
55656;BME280;41530;52.382;5.270;2024-01-06T04:23:41;100973.34;;;14.61;56.47
55656;BME280;41530;52.382;5.270;2024-01-06T04:26:08;100976.00;;;14.61;56.62
55656;BME280;41530;52.382;5.270;2024-01-06T04:28:35;100976.00;;;14.61;56.55
55656;BME280;41530;52.382;5.270;2024-01-06T04:31:02;100976.00;;;14.61;56.54
55656;BME280;41530;52.382;5.270;2024-01-06T04:33:29;100986.59;;;14.61;56.56
55656;BME280;41530;52.382;5.270;2024-01-06T04:35:57;100990.22;;;14.60;56.58
55656;BME280;41530;52.382;5.270;2024-01-06T04:38:25;100995.63;;;14.58;56.64
55656;BME280;41530;52.382;5.270;2024-01-06T04:40:52;100990.47;;;14.57;56.56
55656;BME280;41530;52.382;5.270;2024-01-06T04:43:18;100996.47;;;14.59;56.58
55656;BME280;41530;52.382;5.270;2024-01-06T04:45:45;100994.91;;;14.56;56.58
55656;BME280;41530;52.382;5.270;2024-01-06T04:48:12;100994.78;;;14.58;56.86
55656;BME280;41530;52.382;5.270;2024-01-06T04:50:39;101000.09;;;14.58;56.70
55656;BME280;41530;52.382;5.270;2024-01-06T04:53:05;101005.50;;;14.56;56.50
55656;BME280;41530;52.382;5.270;2024-01-06T04:55:32;100997.69;;;14.55;56.67
55656;BME280;41530;52.382;5.270;2024-01-06T04:57:58;101002.13;;;14.54;56.66
55656;BME280;41530;52.382;5.270;2024-01-06T05:00:25;101003.94;;;14.54;56.49
55656;BME280;41530;52.382;5.270;2024-01-06T05:02:52;101008.41;;;14.53;56.48
55656;BME280;41530;52.382;5.270;2024-01-06T05:05:19;101023.31;;;14.54;56.57
55656;BME280;41530;52.382;5.270;2024-01-06T05:07:46;101012.97;;;14.51;56.66
55656;BME280;41530;52.382;5.270;2024-01-06T05:10:12;101026.09;;;14.53;56.64
55656;BME280;41530;52.382;5.270;2024-01-06T05:12:39;101026.22;;;14.51;56.53
55656;BME280;41530;52.382;5.270;2024-01-06T05:15:06;101022.75;;;14.51;56.55
55656;BME280;41530;52.382;5.270;2024-01-06T05:17:33;101021.91;;;14.50;56.48
55656;BME280;41530;52.382;5.270;2024-01-06T05:19:59;101022.88;;;14.49;56.39
55656;BME280;41530;52.382;5.270;2024-01-06T05:22:26;101020.34;;;14.48;56.46
55656;BME280;41530;52.382;5.270;2024-01-06T05:24:53;101026.50;;;14.48;56.64
55656;BME280;41530;52.382;5.270;2024-01-06T05:27:20;101028.31;;;14.48;56.45
55656;BME280;41530;52.382;5.270;2024-01-06T05:29:47;101026.75;;;14.45;56.58
55656;BME280;41530;52.382;5.270;2024-01-06T05:32:16;101023.25;;;14.45;56.34
55656;BME280;41530;52.382;5.270;2024-01-06T05:34:43;101032.28;;;14.42;56.40
55656;BME280;41530;52.382;5.270;2024-01-06T05:37:11;101035.53;;;14.46;56.28
55656;BME280;41530;52.382;5.270;2024-01-06T05:39:38;101044.44;;;14.45;56.25
55656;BME280;41530;52.382;5.270;2024-01-06T05:42:09;101039.38;;;14.42;56.35
55656;BME280;41530;52.382;5.270;2024-01-06T05:44:38;101051.53;;;14.44;56.33
55656;BME280;41530;52.382;5.270;2024-01-06T05:47:05;101055.97;;;14.44;56.38
55656;BME280;41530;52.382;5.270;2024-01-06T05:49:31;101055.13;;;14.43;56.37
55656;BME280;41530;52.382;5.270;2024-01-06T05:51:58;101059.59;;;14.43;56.33
55656;BME280;41530;52.382;5.270;2024-01-06T05:54:27;101066.81;;;14.41;56.20
55656;BME280;41530;52.382;5.270;2024-01-06T05:56:55;101069.47;;;14.41;56.16
55656;BME280;41530;52.382;5.270;2024-01-06T05:59:22;101072.19;;;14.39;56.68
55656;BME280;41530;52.382;5.270;2024-01-06T06:01:48;101079.19;;;14.40;56.32
55656;BME280;41530;52.382;5.270;2024-01-06T06:04:15;101084.59;;;14.39;56.45
55656;BME280;41530;52.382;5.270;2024-01-06T06:06:42;101083.75;;;14.38;56.27
55656;BME280;41530;52.382;5.270;2024-01-06T06:09:09;101085.59;;;14.38;56.31
55656;BME280;41530;52.382;5.270;2024-01-06T06:11:36;101085.81;;;14.35;56.26
55656;BME280;41530;52.382;5.270;2024-01-06T06:14:03;101098.94;;;14.36;56.39
55656;BME280;41530;52.382;5.270;2024-01-06T06:16:31;101098.94;;;14.36;56.27
55656;BME280;41530;52.382;5.270;2024-01-06T06:18:57;101115.66;;;14.37;56.34
55656;BME280;41530;52.382;5.270;2024-01-06T06:21:24;101124.56;;;14.36;56.48
55656;BME280;41530;52.382;5.270;2024-01-06T06:23:51;101124.69;;;14.34;56.46
55656;BME280;41530;52.382;5.270;2024-01-06T06:26:18;101117.94;;;14.30;56.39
55656;BME280;41530;52.382;5.270;2024-01-06T06:28:44;101122.28;;;14.31;56.37
55656;BME280;41530;52.382;5.270;2024-01-06T06:31:11;101132.84;;;14.31;56.24
55656;BME280;41530;52.382;5.270;2024-01-06T06:33:38;101132.03;;;14.31;56.29
55656;BME280;41530;52.382;5.270;2024-01-06T06:36:06;101137.31;;;14.31;56.33
55656;BME280;41530;52.382;5.270;2024-01-06T06:38:33;101137.44;;;14.29;56.25
55656;BME280;41530;52.382;5.270;2024-01-06T06:40:59;101139.13;;;14.30;56.19
55656;BME280;41530;52.382;5.270;2024-01-06T06:43:26;101150.66;;;14.29;56.28
55656;BME280;41530;52.382;5.270;2024-01-06T06:45:53;101149.69;;;14.30;55.79
55656;BME280;41530;52.382;5.270;2024-01-06T06:48:22;101156.91;;;14.28;56.08
55656;BME280;41530;52.382;5.270;2024-01-06T06:50:49;101156.91;;;14.28;56.42
55656;BME280;41530;52.382;5.270;2024-01-06T06:53:15;101162.31;;;14.26;56.12
55656;BME280;41530;52.382;5.270;2024-01-06T06:55:42;101159.81;;;14.25;56.05
55656;BME280;41530;52.382;5.270;2024-01-06T06:58:08;101165.09;;;14.25;56.05
55656;BME280;41530;52.382;5.270;2024-01-06T07:00:35;101174.88;;;14.24;56.11
55656;BME280;41530;52.382;5.270;2024-01-06T07:03:02;101168.72;;;14.24;55.97
55656;BME280;41530;52.382;5.270;2024-01-06T07:05:29;101174.03;;;14.24;56.06
55656;BME280;41530;52.382;5.270;2024-01-06T07:08:00;101176.78;;;14.22;55.97
55656;BME280;41530;52.382;5.270;2024-01-06T07:10:27;101183.75;;;14.23;55.96
55656;BME280;41530;52.382;5.270;2024-01-06T07:12:54;101183.03;;;14.21;55.89
55656;BME280;41530;52.382;5.270;2024-01-06T07:15:20;101189.28;;;14.20;55.85
55656;BME280;41530;52.382;5.270;2024-01-06T07:17:48;101195.44;;;14.21;55.90
55656;BME280;41530;52.382;5.270;2024-01-06T07:20:16;101195.53;;;14.19;56.00
55656;BME280;41530;52.382;5.270;2024-01-06T07:22:42;101199.88;;;14.20;55.95
55656;BME280;41530;52.382;5.270;2024-01-06T07:25:09;101199.16;;;14.18;55.82
55656;BME280;41530;52.382;5.270;2024-01-06T07:27:35;101206.13;;;14.19;55.99
55656;BME280;41530;52.382;5.270;2024-01-06T07:30:02;101212.38;;;14.18;55.81
55656;BME280;41530;52.382;5.270;2024-01-06T07:32:30;101202.88;;;14.16;55.77
55656;BME280;41530;52.382;5.270;2024-01-06T07:34:57;101220.56;;;14.15;55.86
55656;BME280;41530;52.382;5.270;2024-01-06T07:37:24;101221.50;;;14.14;56.02
55656;BME280;41530;52.382;5.270;2024-01-06T07:39:50;101232.81;;;14.16;56.58
55656;BME280;41530;52.382;5.270;2024-01-06T07:42:18;101230.28;;;14.15;57.22
55656;BME280;41530;52.382;5.270;2024-01-06T07:44:44;101244.25;;;14.17;57.13
55656;BME280;41530;52.382;5.270;2024-01-06T07:47:11;101239.81;;;14.17;57.38
55656;BME280;41530;52.382;5.270;2024-01-06T07:49:38;101245.81;;;14.19;57.11
55656;BME280;41530;52.382;5.270;2024-01-06T07:52:05;101240.31;;;14.11;57.07
55656;BME280;41530;52.382;5.270;2024-01-06T07:54:31;101253.03;;;14.17;57.08
55656;BME280;41530;52.382;5.270;2024-01-06T07:56:58;101261.69;;;14.19;57.03
55656;BME280;41530;52.382;5.270;2024-01-06T07:59:25;101267.72;;;14.21;57.29
55656;BME280;41530;52.382;5.270;2024-01-06T08:01:52;101263.16;;;14.23;57.45
55656;BME280;41530;52.382;5.270;2024-01-06T08:04:19;101260.63;;;14.22;57.60
55656;BME280;41530;52.382;5.270;2024-01-06T08:06:46;101267.59;;;14.23;57.58
55656;BME280;41530;52.382;5.270;2024-01-06T08:09:12;101263.16;;;14.23;57.66
55656;BME280;41530;52.382;5.270;2024-01-06T08:11:39;101277.06;;;14.25;57.48
55656;BME280;41530;52.382;5.270;2024-01-06T08:14:06;101276.13;;;14.26;57.46
55656;BME280;41530;52.382;5.270;2024-01-06T08:16:33;101282.38;;;14.25;57.49
55656;BME280;41530;52.382;5.270;2024-01-06T08:18:59;101292.84;;;14.27;57.44
55656;BME280;41530;52.382;5.270;2024-01-06T08:21:26;101291.88;;;14.28;57.44
55656;BME280;41530;52.382;5.270;2024-01-06T08:23:53;101286.69;;;14.26;57.46
55656;BME280;41530;52.382;5.270;2024-01-06T08:26:20;101294.63;;;14.26;57.36
55656;BME280;41530;52.382;5.270;2024-01-06T08:28:47;101304.16;;;14.29;57.55
55656;BME280;41530;52.382;5.270;2024-01-06T08:31:13;101296.22;;;14.29;57.24
55656;BME280;41530;52.382;5.270;2024-01-06T08:33:40;101303.91;;;14.32;57.49
55656;BME280;41530;52.382;5.270;2024-01-06T08:36:07;101318.00;;;14.33;57.45
55656;BME280;41530;52.382;5.270;2024-01-06T08:38:34;101320.66;;;14.33;57.36
55656;BME280;41530;52.382;5.270;2024-01-06T08:41:01;101321.38;;;14.35;57.22
55656;BME280;41530;52.382;5.270;2024-01-06T08:43:28;101321.38;;;14.35;57.26
55656;BME280;41530;52.382;5.270;2024-01-06T08:45:55;101315.22;;;14.34;57.33
55656;BME280;41530;52.382;5.270;2024-01-06T08:48:21;101317.75;;;14.36;57.39
55656;BME280;41530;52.382;5.270;2024-01-06T08:50:49;101322.09;;;14.37;57.39
55656;BME280;41530;52.382;5.270;2024-01-06T08:53:17;101327.41;;;14.37;57.31
55656;BME280;41530;52.382;5.270;2024-01-06T08:55:44;101322.22;;;14.35;57.26
55656;BME280;41530;52.382;5.270;2024-01-06T08:58:13;101325.69;;;14.36;57.11
55656;BME280;41530;52.382;5.270;2024-01-06T09:00:39;101335.19;;;14.38;57.18
55656;BME280;41530;52.382;5.270;2024-01-06T09:03:06;101338.69;;;14.39;57.23
55656;BME280;41530;52.382;5.270;2024-01-06T09:05:33;101334.38;;;14.38;57.07
55656;BME280;41530;52.382;5.270;2024-01-06T09:08:00;101350.09;;;14.39;57.06
55656;BME280;41530;52.382;5.270;2024-01-06T09:10:27;101347.47;;;14.39;56.92
55656;BME280;41530;52.382;5.270;2024-01-06T09:12:55;101345.19;;;14.35;56.79
55656;BME280;41530;52.382;5.270;2024-01-06T09:15:24;101349.53;;;14.36;56.52
55656;BME280;41530;52.382;5.270;2024-01-06T09:17:51;101355.78;;;14.35;56.26
55656;BME280;41530;52.382;5.270;2024-01-06T09:20:18;101365.53;;;14.34;56.33
55656;BME280;41530;52.382;5.270;2024-01-06T09:22:49;101368.16;;;14.34;56.22
55656;BME280;41530;52.382;5.270;2024-01-06T09:25:16;101371.03;;;14.31;56.06
55656;BME280;41530;52.382;5.270;2024-01-06T09:27:43;101379.72;;;14.33;56.04
55656;BME280;41530;52.382;5.270;2024-01-06T09:30:10;101380.91;;;14.29;55.75
55656;BME280;41530;52.382;5.270;2024-01-06T09:32:36;101387.88;;;14.30;55.92
55656;BME280;41530;52.382;5.270;2024-01-06T09:35:03;101384.63;;;14.26;55.73
55656;BME280;41530;52.382;5.270;2024-01-06T09:37:30;101376.94;;;14.23;55.78
55656;BME280;41530;52.382;5.270;2024-01-06T09:39:57;101384.63;;;14.26;55.66
55656;BME280;41530;52.382;5.270;2024-01-06T09:42:24;101399.66;;;14.26;55.51
55656;BME280;41530;52.382;5.270;2024-01-06T09:44:50;101399.78;;;14.24;55.48
55656;BME280;41530;52.382;5.270;2024-01-06T09:47:18;101400.75;;;14.23;55.67
55656;BME280;41530;52.382;5.270;2024-01-06T09:49:48;101402.44;;;14.24;55.58
55656;BME280;41530;52.382;5.270;2024-01-06T09:52:21;101408.69;;;14.23;55.27
55656;BME280;41530;52.382;5.270;2024-01-06T09:54:52;101412.28;;;14.22;55.45
55656;BME280;41530;52.382;5.270;2024-01-06T09:57:20;101424.56;;;14.23;55.46
55656;BME280;41530;52.382;5.270;2024-01-06T09:59:47;101412.28;;;14.22;55.41
55656;BME280;41530;52.382;5.270;2024-01-06T10:02:15;101424.69;;;14.22;55.49
55656;BME280;41530;52.382;5.270;2024-01-06T10:04:44;101426.47;;;14.21;55.37
55656;BME280;41530;52.382;5.270;2024-01-06T10:07:11;101432.84;;;14.19;55.25
55656;BME280;41530;52.382;5.270;2024-01-06T10:09:40;101442.34;;;14.21;55.33
55656;BME280;41530;52.382;5.270;2024-01-06T10:12:08;101442.47;;;14.20;55.38
55656;BME280;41530;52.382;5.270;2024-01-06T10:14:38;101421.16;;;14.10;55.19
55656;BME280;41530;52.382;5.270;2024-01-06T10:17:06;101437.28;;;14.18;55.19
55656;BME280;41530;52.382;5.270;2024-01-06T10:19:35;101438.25;;;14.17;55.33
55656;BME280;41530;52.382;5.270;2024-01-06T10:22:03;101445.34;;;14.17;55.29
55656;BME280;41530;52.382;5.270;2024-01-06T10:24:29;101446.91;;;14.19;55.43
55656;BME280;41530;52.382;5.270;2024-01-06T10:26:57;101449.56;;;14.19;55.61
55656;BME280;41530;52.382;5.270;2024-01-06T10:29:25;101461.94;;;14.19;55.35
55656;BME280;41530;52.382;5.270;2024-01-06T10:31:53;101446.19;;;14.17;55.64
55656;BME280;41530;52.382;5.270;2024-01-06T10:34:22;101452.44;;;14.16;55.54
55656;BME280;41530;52.382;5.270;2024-01-06T10:36:50;101464.50;;;14.20;55.76
55656;BME280;41530;52.382;5.270;2024-01-06T10:39:19;101461.00;;;14.20;55.66
55656;BME280;41530;52.382;5.270;2024-01-06T10:41:48;101459.41;;;14.17;55.64
55656;BME280;41530;52.382;5.270;2024-01-06T10:44:15;101462.91;;;14.18;55.47
55656;BME280;41530;52.382;5.270;2024-01-06T10:46:44;101458.34;;;14.20;55.46
55656;BME280;41530;52.382;5.270;2024-01-06T10:49:11;101471.59;;;14.20;55.59
55656;BME280;41530;52.382;5.270;2024-01-06T10:51:38;101463.75;;;14.18;55.64
55656;BME280;41530;52.382;5.270;2024-01-06T10:54:05;101474.22;;;14.20;55.61
55656;BME280;41530;52.382;5.270;2024-01-06T10:56:37;101470.00;;;14.17;55.34
55656;BME280;41530;52.382;5.270;2024-01-06T10:59:08;101478.69;;;14.19;55.78
55656;BME280;41530;52.382;5.270;2024-01-06T11:01:35;101477.81;;;14.19;55.53
55656;BME280;41530;52.382;5.270;2024-01-06T11:04:03;101488.31;;;14.20;55.67
55656;BME280;41530;52.382;5.270;2024-01-06T11:06:33;101487.34;;;14.21;55.32
55656;BME280;41530;52.382;5.270;2024-01-06T11:09:09;101488.19;;;14.22;55.61
55656;BME280;41530;52.382;5.270;2024-01-06T11:11:38;101479.63;;;14.18;55.55
55656;BME280;41530;52.382;5.270;2024-01-06T11:14:19;101487.34;;;14.21;55.74
55656;BME280;41530;52.382;5.270;2024-01-06T11:16:46;101486.63;;;14.19;56.04
55656;BME280;41530;52.382;5.270;2024-01-06T11:22:28;101489.03;;;14.22;55.75
55656;BME280;41530;52.382;5.270;2024-01-06T11:25:06;101485.53;;;14.22;55.89
55656;BME280;41530;52.382;5.270;2024-01-06T11:27:34;101486.50;;;14.21;55.82
55656;BME280;41530;52.382;5.270;2024-01-06T11:30:03;101490.00;;;14.21;56.01
55656;BME280;41530;52.382;5.270;2024-01-06T11:32:35;101492.63;;;14.21;55.94
55656;BME280;41530;52.382;5.270;2024-01-06T11:35:14;101492.53;;;14.23;55.87
55656;BME280;41530;52.382;5.270;2024-01-06T11:42:35;101498.41;;;14.26;56.02
55656;BME280;41530;52.382;5.270;2024-01-06T11:45:03;101501.06;;;14.26;55.99
55656;BME280;41530;52.382;5.270;2024-01-06T11:47:32;101502.75;;;14.27;56.21
55656;BME280;41530;52.382;5.270;2024-01-06T11:50:01;101510.69;;;14.27;56.08
55656;BME280;41530;52.382;5.270;2024-01-06T11:52:31;101504.44;;;14.28;56.13
55656;BME280;41530;52.382;5.270;2024-01-06T11:54:58;101506.97;;;14.30;56.18
55656;BME280;41530;52.382;5.270;2024-01-06T11:57:28;101500.72;;;14.31;56.16
55656;BME280;41530;52.382;5.270;2024-01-06T11:59:55;101495.66;;;14.28;56.13
55656;BME280;41530;52.382;5.270;2024-01-06T12:02:22;101508.56;;;14.33;56.00
55656;BME280;41530;52.382;5.270;2024-01-06T12:04:52;101506.03;;;14.31;56.05
55656;BME280;41530;52.382;5.270;2024-01-06T12:07:20;101501.69;;;14.30;56.28
55656;BME280;41530;52.382;5.270;2024-01-06T12:10:10;101507.72;;;14.32;55.94
55656;BME280;41530;52.382;5.270;2024-01-06T12:12:38;101499.88;;;14.31;56.00
55656;BME280;41530;52.382;5.270;2024-01-06T12:15:05;101506.88;;;14.32;56.09
55656;BME280;41530;52.382;5.270;2024-01-06T12:17:32;101506.03;;;14.31;55.97
55656;BME280;41530;52.382;5.270;2024-01-06T12:19:59;101506.13;;;14.30;56.05
55656;BME280;41530;52.382;5.270;2024-01-06T12:22:27;101509.63;;;14.30;55.94
55656;BME280;41530;52.382;5.270;2024-01-06T12:24:53;101506.97;;;14.30;56.05
55656;BME280;41530;52.382;5.270;2024-01-06T12:27:21;101507.09;;;14.28;55.97
55656;BME280;41530;52.382;5.270;2024-01-06T12:29:48;101514.91;;;14.30;55.92
55656;BME280;41530;52.382;5.270;2024-01-06T12:32:14;101522.84;;;14.30;55.91
55656;BME280;41530;52.382;5.270;2024-01-06T12:34:41;101510.81;;;14.26;55.88
55656;BME280;41530;52.382;5.270;2024-01-06T12:37:08;101513.22;;;14.29;55.91
55656;BME280;41530;52.382;5.270;2024-01-06T12:39:35;101522.00;;;14.30;55.89
55656;BME280;41530;52.382;5.270;2024-01-06T12:42:02;101522.22;;;14.26;56.12
55656;BME280;41530;52.382;5.270;2024-01-06T12:44:28;101518.63;;;14.27;56.61
55656;BME280;41530;52.382;5.270;2024-01-06T12:46:55;101526.47;;;14.29;56.57
55656;BME280;41530;52.382;5.270;2024-01-06T12:49:23;101537.03;;;14.29;56.36
55656;BME280;41530;52.382;5.270;2024-01-06T12:51:50;101531.03;;;14.27;56.32
55656;BME280;41530;52.382;5.270;2024-01-06T12:54:17;101544.13;;;14.28;56.17
55656;BME280;41530;52.382;5.270;2024-01-06T12:56:44;101532.81;;;14.26;56.09
55656;BME280;41530;52.382;5.270;2024-01-06T12:59:10;101523.66;;;14.19;56.03